Bursa Airport


Codes: LTBE/BTZ
Name: Bursa Airport
City: Bursa
Country: Turkey
Elevation: 331 ft.

Photos at Bursa Airport


   Photos courtesy of SpottingLog. You can add your own sightings and photos by signing up for a free trial today.



No photos found.

Weather at Bursa Airport


Time (UTC)DescriptionTempratureWindCloud coverageVisibilityPressureHumidity
13-Jun-2024 03:00Scattered Clouds22°C2 mph, 46%10000m1012hPa41%
13-Jun-2024 06:00Scattered Clouds28°C4 mph, N29%10000m1013hPa35%
13-Jun-2024 09:00Clear Sky37°C9 mph, NW0%10000m1013hPa24%
13-Jun-2024 12:00Few Clouds38°C7 mph, NW14%10000m1011hPa22%
13-Jun-2024 15:00Broken Clouds35°C7 mph, NW75%10000m1011hPa28%
13-Jun-2024 18:00Broken Clouds29°C2 mph, SW64%10000m1012hPa43%
13-Jun-2024 21:00Scattered Clouds28°C2 mph, S26%10000m1013hPa43%
14-Jun-2024 00:00Scattered Clouds27°C4 mph, S25%10000m1011hPa37%
14-Jun-2024 03:00Clear Sky26°C4 mph, SE9%10000m1010hPa39%
14-Jun-2024 06:00Few Clouds34°C2 mph, NW12%10000m1009hPa27%
14-Jun-2024 09:00Broken Clouds33°C7 mph, NW75%10000m1010hPa31%
14-Jun-2024 12:00Overcast Clouds33°C7 mph, NW86%10000m1008hPa32%
14-Jun-2024 15:00Broken Clouds32°C11 mph, NW74%10000m1006hPa43%
14-Jun-2024 18:00Light Rain22°C4 mph, NE64%10000m1012hPa77%
14-Jun-2024 21:00Light Rain19°C0 mph, SE13%10000m1012hPa88%
15-Jun-2024 00:00Clear Sky18°C2 mph, SW7%10000m1013hPa90%
15-Jun-2024 03:00Clear Sky18°C2 mph, SW3%10000m1013hPa89%
15-Jun-2024 06:00Clear Sky22°C4 mph, NW7%10000m1013hPa70%
15-Jun-2024 09:00Clear Sky28°C9 mph, N6%10000m1012hPa43%
15-Jun-2024 12:00Clear Sky29°C11 mph, N3%10000m1011hPa37%
15-Jun-2024 15:00Clear Sky27°C13 mph, NE1%10000m1011hPa42%
15-Jun-2024 18:00Clear Sky21°C7 mph, NE1%10000m1013hPa63%
15-Jun-2024 21:00Clear Sky19°C7 mph, E0%10000m1013hPa68%
16-Jun-2024 00:00Clear Sky18°C7 mph, E0%10000m1013hPa65%
16-Jun-2024 03:00Clear Sky18°C4 mph, E0%10000m1013hPa70%
16-Jun-2024 06:00Clear Sky25°C7 mph, NE0%10000m1013hPa44%
16-Jun-2024 09:00Clear Sky29°C9 mph, NE0%10000m1012hPa28%
16-Jun-2024 12:00Clear Sky32°C11 mph, NE0%10000m1011hPa25%
16-Jun-2024 15:00Clear Sky29°C13 mph, NE0%10000m1011hPa34%
16-Jun-2024 18:00Few Clouds22°C4 mph, NE18%10000m1013hPa56%
16-Jun-2024 21:00Broken Clouds20°C4 mph, E59%10000m1014hPa59%
17-Jun-2024 00:00Scattered Clouds18°C4 mph, E41%10000m1014hPa63%
17-Jun-2024 03:00Clear Sky17°C2 mph, E0%10000m1015hPa54%
17-Jun-2024 06:00Clear Sky25°C4 mph, NE0%10000m1015hPa34%
17-Jun-2024 09:00Clear Sky31°C9 mph, NE0%10000m1014hPa20%
17-Jun-2024 12:00Clear Sky34°C13 mph, NE0%10000m1012hPa20%
17-Jun-2024 15:00Clear Sky31°C13 mph, NE3%10000m1012hPa25%
17-Jun-2024 18:00Clear Sky23°C4 mph, E5%10000m1014hPa45%
17-Jun-2024 21:00Broken Clouds21°C7 mph, E55%10000m1015hPa51%
18-Jun-2024 00:00Scattered Clouds19°C4 mph, E29%10000m1015hPa58%